createdAt,value
2022-09-06T00:01:23.278Z,20.40
2022-09-06T00:03:50.477Z,20.40
2022-09-06T00:06:19.565Z,20.40
2022-09-06T00:08:47.654Z,20.30
2022-09-06T00:11:15.515Z,20.30
2022-09-06T00:13:42.584Z,20.30
2022-09-06T00:16:12.832Z,20.20
2022-09-06T00:18:39.769Z,20.20
2022-09-06T00:21:21.474Z,20.20
2022-09-06T00:23:48.420Z,20.20
2022-09-06T00:26:15.651Z,20.20
2022-09-06T00:28:42.577Z,20.20
2022-09-06T00:31:16.732Z,20.20
2022-09-06T00:33:43.643Z,20.20
2022-09-06T00:36:11.785Z,20.20
2022-09-06T00:38:39.226Z,20.20
2022-09-06T00:41:08.210Z,20.20
2022-09-06T00:43:34.891Z,20.20
2022-09-06T00:46:03.198Z,20.20
2022-09-06T00:48:30.467Z,20.20
2022-09-06T00:51:00.840Z,20.10
2022-09-06T00:53:27.694Z,20.10
2022-09-06T00:55:55.393Z,20.10
2022-09-06T00:58:22.643Z,20.10
2022-09-06T01:00:49.439Z,20.10
2022-09-06T01:03:16.276Z,20.10
2022-09-06T01:06:09.036Z,20.10
2022-09-06T01:09:06.625Z,20.00
2022-09-06T01:11:55.773Z,20.00
2022-09-06T01:15:03.287Z,20.10
2022-09-06T01:18:03.947Z,20.10
2022-09-06T01:20:42.501Z,20.10
2022-09-06T01:23:30.908Z,20.10
2022-09-06T01:26:30.748Z,20.20
2022-09-06T01:28:58.564Z,20.20
2022-09-06T01:31:44.505Z,20.20
2022-09-06T01:34:35.091Z,20.30
2022-09-06T01:37:17.546Z,20.30
2022-09-06T01:39:44.239Z,20.40
2022-09-06T01:42:20.054Z,20.40
2022-09-06T01:44:52.514Z,20.40
2022-09-06T01:48:03.625Z,20.50
2022-09-06T01:50:53.610Z,20.50
2022-09-06T01:53:34.946Z,20.50
2022-09-06T01:56:40.722Z,20.60
2022-09-06T01:59:13.277Z,20.60
2022-09-06T02:02:11.610Z,20.60
2022-09-06T02:04:54.064Z,20.60
2022-09-06T02:07:25.042Z,20.60
2022-09-06T02:09:59.012Z,20.70
2022-09-06T02:12:28.372Z,20.70
2022-09-06T02:15:09.112Z,20.70
2022-09-06T02:17:41.304Z,20.70
2022-09-06T02:20:17.121Z,20.70
2022-09-06T02:22:46.972Z,20.70
2022-09-06T02:25:21.333Z,20.70
2022-09-06T02:27:48.156Z,20.70
2022-09-06T02:30:14.929Z,20.70
2022-09-06T02:32:57.242Z,20.70
2022-09-06T02:35:24.439Z,20.70
2022-09-06T02:37:52.109Z,20.70
2022-09-06T02:40:19.329Z,20.70
2022-09-06T02:42:45.980Z,20.80
2022-09-06T02:45:13.093Z,20.90
2022-09-06T02:47:39.834Z,21.00
2022-09-06T02:50:08.221Z,21.00
2022-09-06T02:52:34.875Z,21.10
2022-09-06T02:55:01.529Z,21.10
2022-09-06T02:57:28.174Z,21.10
2022-09-06T02:59:54.831Z,21.20
2022-09-06T03:02:21.512Z,21.20
2022-09-06T03:04:48.210Z,21.30
2022-09-06T03:07:14.841Z,21.30
2022-09-06T03:09:41.678Z,21.30
2022-09-06T03:12:08.633Z,21.40
2022-09-06T03:14:36.134Z,21.40
2022-09-06T03:17:03.824Z,21.40
2022-09-06T03:19:30.537Z,21.50
2022-09-06T03:21:57.165Z,21.50
2022-09-06T03:24:23.872Z,21.50
2022-09-06T03:26:50.865Z,21.60
2022-09-06T03:29:17.617Z,21.50
2022-09-06T03:31:44.252Z,21.60
2022-09-06T03:34:11.306Z,21.60
2022-09-06T03:36:38.238Z,21.50
2022-09-06T03:39:04.909Z,21.50
2022-09-06T03:41:31.531Z,21.50
2022-09-06T03:43:58.191Z,21.50
2022-09-06T03:46:24.892Z,21.50
2022-09-06T03:48:51.560Z,21.50
2022-09-06T03:51:18.313Z,21.40
2022-09-06T03:53:45.079Z,21.50
2022-09-06T03:56:11.880Z,21.40
2022-09-06T03:58:38.513Z,21.40
2022-09-06T04:01:08.461Z,21.40
2022-09-06T04:03:35.984Z,21.40
2022-09-06T04:06:03.269Z,21.30
2022-09-06T04:08:30.295Z,21.30
2022-09-06T04:10:58.344Z,21.30
2022-09-06T04:13:26.221Z,21.30
2022-09-06T04:15:53.066Z,21.30
2022-09-06T04:18:20.588Z,21.30
2022-09-06T04:20:55.923Z,21.20
2022-09-06T04:23:24.063Z,21.20
2022-09-06T04:25:53.398Z,21.20
2022-09-06T04:28:21.330Z,21.20
2022-09-06T04:30:58.143Z,21.10
2022-09-06T04:33:28.511Z,21.10
2022-09-06T04:35:57.686Z,21.10
2022-09-06T04:38:25.411Z,21.10
2022-09-06T04:40:52.220Z,21.00
2022-09-06T04:43:18.870Z,21.00
2022-09-06T04:45:45.739Z,21.00
2022-09-06T04:48:12.610Z,21.00
2022-09-06T04:50:39.281Z,21.00
2022-09-06T04:53:06.293Z,21.00
2022-09-06T04:55:34.243Z,21.00
2022-09-06T04:58:01.462Z,21.00
2022-09-06T05:00:28.600Z,21.00
2022-09-06T05:02:55.343Z,21.00
2022-09-06T05:05:24.863Z,20.90
2022-09-06T05:07:55.307Z,20.90
2022-09-06T05:10:23.184Z,20.90
2022-09-06T05:12:51.046Z,20.90
2022-09-06T05:15:18.547Z,20.90
2022-09-06T05:17:45.242Z,20.90
2022-09-06T05:20:12.800Z,20.90
2022-09-06T05:22:40.424Z,20.80
2022-09-06T05:25:08.610Z,20.90
2022-09-06T05:27:35.595Z,20.80
2022-09-06T05:30:04.100Z,20.80
2022-09-06T05:32:30.778Z,20.80
2022-09-06T05:34:57.426Z,20.80
2022-09-06T05:37:24.240Z,20.90
2022-09-06T05:39:51.011Z,20.90
2022-09-06T05:42:19.408Z,21.00
2022-09-06T05:44:46.280Z,21.00
2022-09-06T05:47:13.513Z,21.10
2022-09-06T05:49:40.264Z,21.20
2022-09-06T05:52:06.923Z,21.20
2022-09-06T05:54:33.646Z,21.30
2022-09-06T05:57:00.323Z,21.40
2022-09-06T05:59:26.968Z,21.40
2022-09-06T06:01:54.238Z,21.50
2022-09-06T06:04:22.297Z,21.60
2022-09-06T06:06:49.344Z,21.70
2022-09-06T06:09:17.427Z,21.70
2022-09-06T06:11:44.322Z,21.70
2022-09-06T06:14:11.328Z,21.60
2022-09-06T06:16:38.528Z,21.60
2022-09-06T06:19:05.496Z,21.60
2022-09-06T06:21:33.474Z,21.60
2022-09-06T06:24:02.634Z,21.60
2022-09-06T06:26:32.922Z,21.50
2022-09-06T06:29:01.948Z,21.50
2022-09-06T06:31:30.147Z,21.50
2022-09-06T06:33:57.019Z,21.50
2022-09-06T06:36:25.243Z,21.50
2022-09-06T06:38:55.211Z,21.50
2022-09-06T06:41:24.544Z,21.50
2022-09-06T06:43:55.484Z,21.60
2022-09-06T06:46:24.970Z,21.60
2022-09-06T06:48:54.874Z,21.60
2022-09-06T06:51:23.085Z,21.60
2022-09-06T06:53:49.944Z,21.60
2022-09-06T06:56:19.198Z,21.60
2022-09-06T06:58:48.720Z,21.60
2022-09-06T07:01:16.688Z,21.70
2022-09-06T07:03:43.761Z,21.70
2022-09-06T07:06:10.790Z,21.70
2022-09-06T07:08:38.225Z,21.80
2022-09-06T07:11:06.844Z,21.80
2022-09-06T07:13:37.153Z,21.90
2022-09-06T07:16:08.028Z,22.00
2022-09-06T07:18:35.086Z,22.00
2022-09-06T07:26:36.380Z,22.20
2022-09-06T07:29:04.861Z,22.00
2022-09-06T07:34:19.262Z,21.90
2022-09-06T07:36:45.979Z,21.80
2022-09-06T07:39:12.762Z,21.90
2022-09-06T07:41:39.525Z,21.90
2022-09-06T07:44:06.207Z,21.90
2022-09-06T07:46:33.079Z,21.90
2022-09-06T07:48:59.772Z,21.90
2022-09-06T07:51:26.472Z,22.00
2022-09-06T07:54:07.442Z,22.00
2022-09-06T07:56:40.180Z,22.00
2022-09-06T07:59:06.828Z,22.00
2022-09-06T08:01:34.722Z,22.10
2022-09-06T08:04:06.362Z,22.20
2022-09-06T08:09:22.485Z,22.30
2022-09-06T08:11:51.026Z,22.40
2022-09-06T08:14:17.778Z,22.60
2022-09-06T08:16:44.512Z,22.70
2022-09-06T08:19:12.443Z,22.80
2022-09-06T08:21:39.415Z,22.90
2022-09-06T08:24:08.175Z,23.00
2022-09-06T08:26:39.265Z,23.00
2022-09-06T08:29:08.678Z,23.10
2022-09-06T08:31:38.661Z,23.20
2022-09-06T08:34:06.144Z,23.20
2022-09-06T08:36:33.858Z,23.20
2022-09-06T08:39:02.380Z,23.20
2022-09-06T08:42:06.728Z,23.20
2022-09-06T08:44:57.190Z,23.20
2022-09-06T08:47:24.950Z,23.10
2022-09-06T08:50:00.814Z,23.10
2022-09-06T08:52:54.398Z,23.10
2022-09-06T08:55:59.080Z,23.20
2022-09-06T08:58:44.429Z,23.30
2022-09-06T09:01:25.242Z,23.40
2022-09-06T09:03:54.313Z,23.50
2022-09-06T09:06:23.296Z,23.60
2022-09-06T09:08:59.155Z,23.70
2022-09-06T09:11:26.007Z,23.80
2022-09-06T09:14:07.953Z,23.80
2022-09-06T09:16:34.892Z,23.90
2022-09-06T09:19:06.018Z,23.90
2022-09-06T09:21:38.452Z,23.90
2022-09-06T09:24:07.749Z,23.90
2022-09-06T09:26:49.440Z,23.90
2022-09-06T09:29:17.097Z,23.90
2022-09-06T09:31:53.332Z,23.90
2022-09-06T09:34:38.105Z,23.80
2022-09-06T09:40:17.520Z,23.80
2022-09-06T09:42:44.679Z,23.80
2022-09-06T09:45:20.304Z,23.90
2022-09-06T09:47:47.411Z,24.00
2022-09-06T09:50:25.692Z,24.10
2022-09-06T09:52:52.375Z,24.20
2022-09-06T09:55:26.360Z,24.30
2022-09-06T09:57:54.248Z,24.40
2022-09-06T10:00:36.375Z,24.40
2022-09-06T10:03:13.440Z,24.50
2022-09-06T10:05:41.300Z,24.70
2022-09-06T10:08:12.350Z,24.80
2022-09-06T10:10:43.170Z,24.90
2022-09-06T10:13:31.496Z,24.90
2022-09-06T10:16:00.542Z,25.00
2022-09-06T10:18:36.269Z,25.10
2022-09-06T10:21:09.812Z,25.10
2022-09-06T10:26:46.035Z,25.30
2022-09-06T10:29:14.420Z,25.30
2022-09-06T10:31:59.445Z,25.40
2022-09-06T10:34:48.113Z,25.50
2022-09-06T10:37:42.102Z,25.50
2022-09-06T10:40:11.780Z,25.50
2022-09-06T10:42:50.593Z,25.60
2022-09-06T10:45:27.393Z,25.70
2022-09-06T10:48:02.991Z,25.70
2022-09-06T10:50:35.895Z,25.90
2022-09-06T10:53:27.385Z,26.00
2022-09-06T10:56:04.831Z,26.00
2022-09-06T11:01:39.017Z,26.10
2022-09-06T11:04:13.135Z,26.10
2022-09-06T11:06:47.897Z,26.20
2022-09-06T11:09:31.106Z,26.20
2022-09-06T11:12:37.416Z,26.20
2022-09-06T11:15:06.235Z,26.20
2022-09-06T11:17:49.077Z,26.20
2022-09-06T11:20:46.033Z,26.20
2022-09-06T11:23:34.739Z,26.10
2022-09-06T11:26:36.734Z,26.10
2022-09-06T11:29:09.162Z,26.00
2022-09-06T11:32:19.814Z,26.00
2022-09-06T11:34:55.861Z,26.00
2022-09-06T11:37:30.949Z,25.90
2022-09-06T11:40:27.586Z,25.90
2022-09-06T11:42:55.178Z,25.80
2022-09-06T11:45:46.156Z,25.70
2022-09-06T11:48:33.864Z,25.60
2022-09-06T11:51:13.097Z,25.50
2022-09-06T11:54:06.170Z,25.50
2022-09-06T11:56:42.264Z,25.40
2022-09-06T11:59:21.869Z,25.30
2022-09-06T12:02:26.642Z,25.30
2022-09-06T12:05:00.463Z,25.30
2022-09-06T12:07:29.149Z,25.30
2022-09-06T12:09:56.148Z,25.30
2022-09-06T12:12:40.872Z,25.20
2022-09-06T12:15:31.079Z,25.20
2022-09-06T12:18:02.416Z,25.10
2022-09-06T12:20:47.987Z,25.20
2022-09-06T12:23:35.938Z,25.20
2022-09-06T12:26:10.737Z,25.30
2022-09-06T12:28:51.412Z,25.30
2022-09-06T12:31:33.030Z,25.30
2022-09-06T12:34:19.361Z,25.40
2022-09-06T12:36:53.422Z,25.50
2022-09-06T12:39:21.435Z,25.50
2022-09-06T12:41:57.253Z,25.60
2022-09-06T12:44:34.288Z,25.70
2022-09-06T12:47:12.228Z,25.80
2022-09-06T12:49:38.940Z,26.00
2022-09-06T12:52:12.199Z,26.10
2022-09-06T12:54:57.145Z,26.20
2022-09-06T12:57:26.389Z,26.30
2022-09-06T12:59:57.528Z,26.40
2022-09-06T13:02:31.906Z,26.50
2022-09-06T13:05:11.705Z,26.60
2022-09-06T13:07:45.282Z,26.70
2022-09-06T13:10:17.051Z,26.70
2022-09-06T13:12:46.099Z,26.80
2022-09-06T13:15:22.309Z,26.80
2022-09-06T13:17:49.064Z,26.90
2022-09-06T13:20:29.211Z,27.00
2022-09-06T13:23:10.735Z,27.00
2022-09-06T13:25:56.242Z,27.00
2022-09-06T13:28:29.589Z,27.00
2022-09-06T13:31:20.428Z,27.00
2022-09-06T13:33:57.288Z,27.00
2022-09-06T13:36:30.976Z,27.00
2022-09-06T13:38:59.879Z,27.00
2022-09-06T13:41:26.485Z,26.90
2022-09-06T13:44:05.992Z,26.70
2022-09-06T13:46:33.363Z,26.70
2022-09-06T13:49:00.373Z,26.60
2022-09-06T13:51:27.050Z,26.50
2022-09-06T13:54:08.053Z,26.50
2022-09-06T13:56:35.447Z,26.40
2022-09-06T13:59:03.249Z,26.40
2022-09-06T14:01:31.995Z,26.40
2022-09-06T14:03:59.154Z,26.40
2022-09-06T14:06:25.898Z,26.40
2022-09-06T14:09:08.636Z,26.30
2022-09-06T14:11:36.543Z,26.40
2022-09-06T14:14:03.686Z,26.40
2022-09-06T14:16:30.509Z,26.50
2022-09-06T14:18:57.478Z,26.50
2022-09-06T14:21:24.244Z,26.50
2022-09-06T14:23:52.174Z,26.50
2022-09-06T14:26:20.910Z,26.60
2022-09-06T14:28:48.050Z,26.60
2022-09-06T14:31:17.878Z,26.60
2022-09-06T14:33:45.061Z,26.60
2022-09-06T14:36:14.232Z,26.50
2022-09-06T14:38:42.717Z,26.40
2022-09-06T14:41:10.010Z,26.30
2022-09-06T14:43:37.272Z,26.20
2022-09-06T14:46:12.723Z,26.10
2022-09-06T14:48:42.221Z,26.00
2022-09-06T14:51:20.763Z,25.80
2022-09-06T14:53:49.248Z,25.80
2022-09-06T14:56:16.014Z,25.70
2022-09-06T14:58:43.331Z,25.60
2022-09-06T15:01:15.099Z,25.60
2022-09-06T15:03:48.525Z,25.50
2022-09-06T15:06:16.184Z,25.50
2022-09-06T15:08:43.134Z,25.50
2022-09-06T15:11:10.663Z,25.50
2022-09-06T15:13:38.751Z,25.40
2022-09-06T15:16:06.790Z,25.40
2022-09-06T15:18:34.535Z,25.40
2022-09-06T15:21:12.186Z,25.40
2022-09-06T15:23:39.671Z,25.40
2022-09-06T15:26:08.307Z,25.30
2022-09-06T15:28:40.020Z,25.30
2022-09-06T15:31:08.256Z,25.30
2022-09-06T15:33:36.695Z,25.20
2022-09-06T15:36:07.895Z,25.20
2022-09-06T15:38:36.734Z,25.20
2022-09-06T15:41:08.611Z,25.10
2022-09-06T15:43:36.566Z,25.10
2022-09-06T15:46:03.342Z,25.00
2022-09-06T15:48:43.235Z,25.00
2022-09-06T15:51:11.889Z,25.00
2022-09-06T15:53:38.712Z,25.00
2022-09-06T15:56:06.706Z,25.00
2022-09-06T15:58:33.987Z,24.90
2022-09-06T16:01:00.759Z,24.90
2022-09-06T16:03:27.698Z,24.90
2022-09-06T16:08:41.257Z,24.80
2022-09-06T16:11:10.597Z,24.80
2022-09-06T16:13:38.455Z,24.80
2022-09-06T16:16:08.069Z,24.70
2022-09-06T16:18:36.178Z,24.70
2022-09-06T16:21:08.289Z,24.70
2022-09-06T16:23:36.524Z,24.60
2022-09-06T16:26:04.873Z,24.70
2022-09-06T16:28:33.869Z,24.70
2022-09-06T16:31:02.563Z,24.70
2022-09-06T16:33:31.291Z,24.70
2022-09-06T16:36:02.281Z,24.70
2022-09-06T16:38:33.399Z,24.70
2022-09-06T16:41:08.277Z,24.70
2022-09-06T16:43:35.056Z,24.70
2022-09-06T16:46:03.185Z,24.80
2022-09-06T16:48:30.659Z,24.80
2022-09-06T16:50:58.317Z,24.80
2022-09-06T16:53:24.989Z,24.70
2022-09-06T16:55:51.667Z,24.70
2022-09-06T16:58:18.318Z,24.70
2022-09-06T17:00:45.511Z,24.70
2022-09-06T17:03:15.345Z,24.60
2022-09-06T17:05:42.044Z,24.60
2022-09-06T17:08:09.841Z,24.60
2022-09-06T17:10:39.257Z,24.50
2022-09-06T17:13:05.881Z,24.50
2022-09-06T17:15:52.518Z,24.50
2022-09-06T17:18:19.207Z,24.40
2022-09-06T17:21:00.924Z,24.40
2022-09-06T17:23:28.169Z,24.30
2022-09-06T17:25:54.804Z,24.30
2022-09-06T17:28:21.909Z,24.20
2022-09-06T17:30:48.978Z,24.10
2022-09-06T17:33:17.544Z,24.00
2022-09-06T17:35:44.883Z,23.90
2022-09-06T17:38:12.223Z,23.80
2022-09-06T17:40:39.325Z,23.60
2022-09-06T17:43:06.302Z,23.50
2022-09-06T17:45:37.685Z,23.50
2022-09-06T17:48:05.146Z,23.40
2022-09-06T17:50:32.984Z,23.30
2022-09-06T17:53:00.144Z,23.30
2022-09-06T17:55:29.196Z,23.30
2022-09-06T17:57:58.999Z,23.20
2022-09-06T18:00:26.250Z,23.10
2022-09-06T18:02:53.271Z,23.10
2022-09-06T18:05:20.157Z,23.00
2022-09-06T18:07:47.386Z,22.90
2022-09-06T18:10:15.178Z,22.90
2022-09-06T18:12:42.423Z,22.80
2022-09-06T18:15:09.858Z,22.80
2022-09-06T18:17:36.620Z,22.70
2022-09-06T18:20:04.333Z,22.60
2022-09-06T18:22:31.078Z,22.50
2022-09-06T18:24:58.546Z,22.50
2022-09-06T18:27:25.797Z,22.50
2022-09-06T18:29:52.532Z,22.40
2022-09-06T18:32:19.207Z,22.30
2022-09-06T18:34:45.876Z,22.30
2022-09-06T18:37:12.558Z,22.20
2022-09-06T18:39:39.637Z,22.20
2022-09-06T18:42:07.212Z,22.20
2022-09-06T18:44:34.587Z,22.10
2022-09-06T18:47:03.236Z,22.10
2022-09-06T18:49:30.481Z,22.00
2022-09-06T18:51:57.157Z,22.00
2022-09-06T18:54:23.893Z,21.90
2022-09-06T18:56:50.586Z,21.80
2022-09-06T18:59:17.739Z,21.90
2022-09-06T19:01:44.658Z,21.80
2022-09-06T19:04:12.315Z,21.80
2022-09-06T19:06:40.577Z,21.80
2022-09-06T19:09:09.835Z,21.80
2022-09-06T19:11:36.879Z,21.70
2022-09-06T19:14:04.198Z,21.70
2022-09-06T19:16:31.573Z,21.70
2022-09-06T19:19:05.848Z,21.60
2022-09-06T19:21:35.630Z,21.60
2022-09-06T19:24:07.449Z,21.60
2022-09-06T19:26:37.670Z,21.50
2022-09-06T19:29:07.836Z,21.50
2022-09-06T19:31:36.395Z,21.40
2022-09-06T19:34:04.138Z,21.40
2022-09-06T19:36:31.911Z,21.40
2022-09-06T19:39:07.049Z,21.40
2022-09-06T19:41:37.837Z,21.30
2022-09-06T19:44:05.827Z,21.30
2022-09-06T19:46:32.873Z,21.20
2022-09-06T19:49:00.467Z,21.20
2022-09-06T19:51:27.318Z,21.20
2022-09-06T19:53:59.823Z,21.20
2022-09-06T19:56:33.597Z,21.20
2022-09-06T19:59:04.126Z,21.20
2022-09-06T20:01:32.696Z,21.10
2022-09-06T20:04:02.467Z,21.10
2022-09-06T20:06:30.215Z,21.10
2022-09-06T20:08:58.452Z,21.10
2022-09-06T20:11:28.410Z,21.10
2022-09-06T20:13:55.151Z,21.10
2022-09-06T20:16:22.402Z,21.10
2022-09-06T20:18:49.134Z,21.10
2022-09-06T20:21:18.364Z,21.10
2022-09-06T20:23:50.143Z,21.10
2022-09-06T20:26:17.481Z,21.10
2022-09-06T20:28:44.335Z,21.10
2022-09-06T20:31:13.898Z,21.00
2022-09-06T20:33:40.683Z,21.10
2022-09-06T20:36:09.207Z,21.10
2022-09-06T20:38:37.986Z,21.10
2022-09-06T20:41:18.484Z,21.20
2022-09-06T20:43:46.526Z,21.20
2022-09-06T20:46:18.523Z,21.20
2022-09-06T20:48:46.206Z,21.20
2022-09-06T20:51:15.882Z,21.10
2022-09-06T20:53:42.637Z,21.00
2022-09-06T20:56:17.643Z,20.90
2022-09-06T20:58:52.614Z,20.90
2022-09-06T21:01:22.728Z,20.90
2022-09-06T21:03:51.368Z,20.90
2022-09-06T21:06:18.626Z,20.90
2022-09-06T21:08:45.540Z,20.90
2022-09-06T21:11:12.933Z,20.90
2022-09-06T21:13:40.064Z,21.00
2022-09-06T21:16:07.283Z,21.00
2022-09-06T21:18:35.317Z,21.00
2022-09-06T21:21:07.045Z,21.10
2022-09-06T21:23:37.632Z,21.00
2022-09-06T21:26:10.078Z,21.00
2022-09-06T21:28:38.813Z,21.00
2022-09-06T21:31:08.753Z,21.00
2022-09-06T21:33:36.907Z,21.10
2022-09-06T21:36:12.034Z,21.10
2022-09-06T21:38:41.138Z,21.20
2022-09-06T21:41:09.367Z,21.30
2022-09-06T21:43:36.535Z,21.30
2022-09-06T21:46:05.116Z,21.40
2022-09-06T21:48:32.438Z,21.40
2022-09-06T21:50:59.073Z,21.40
2022-09-06T21:53:27.063Z,21.50
2022-09-06T21:56:00.129Z,21.60
2022-09-06T21:58:27.210Z,21.60
2022-09-06T22:00:56.375Z,21.70
2022-09-06T22:03:23.272Z,21.70
2022-09-06T22:05:50.189Z,21.80
2022-09-06T22:08:17.025Z,21.90
2022-09-06T22:10:43.854Z,21.90
2022-09-06T22:13:10.780Z,22.00
2022-09-06T22:15:38.804Z,22.00
2022-09-06T22:18:07.093Z,22.00
2022-09-06T22:20:34.508Z,22.00
2022-09-06T22:23:08.101Z,22.00
2022-09-06T22:25:34.852Z,22.00
2022-09-06T22:28:01.762Z,22.00
2022-09-06T22:30:28.550Z,22.00
2022-09-06T22:32:55.320Z,22.00
2022-09-06T22:35:22.202Z,22.00
2022-09-06T22:37:49.956Z,21.90
2022-09-06T22:40:16.624Z,21.80
2022-09-06T22:42:43.352Z,21.80
2022-09-06T22:45:10.336Z,21.70
2022-09-06T22:47:36.978Z,21.70
2022-09-06T22:50:03.909Z,21.70
2022-09-06T22:52:30.551Z,21.70
2022-09-06T22:54:57.216Z,21.70
2022-09-06T22:57:23.882Z,21.70
2022-09-06T22:59:50.543Z,21.70
2022-09-06T23:02:17.186Z,21.70
2022-09-06T23:04:43.869Z,21.80
2022-09-06T23:07:10.560Z,21.80
2022-09-06T23:09:37.210Z,21.80
2022-09-06T23:12:05.102Z,21.80
2022-09-06T23:14:31.747Z,21.80
2022-09-06T23:16:58.431Z,21.70
2022-09-06T23:19:25.086Z,21.70
2022-09-06T23:21:51.724Z,21.70
2022-09-06T23:24:18.385Z,21.60
2022-09-06T23:26:45.165Z,21.60
2022-09-06T23:29:12.779Z,21.50
2022-09-06T23:31:39.731Z,21.40
2022-09-06T23:34:06.447Z,21.40
2022-09-06T23:36:33.123Z,21.30
2022-09-06T23:39:01.713Z,21.30
2022-09-06T23:41:28.660Z,21.30
2022-09-06T23:43:55.478Z,21.20
2022-09-06T23:46:22.254Z,21.20
2022-09-06T23:48:48.945Z,21.10
2022-09-06T23:51:15.621Z,21.10
2022-09-06T23:53:42.651Z,21.10
2022-09-06T23:56:09.815Z,21.10
2022-09-06T23:58:37.387Z,21.00
